URKZ AUTO 230559Z 03003MPS 1600 VV400 M02/M02 Q1011 RMK QFE756